sensor_id;sensor_type;location;lat;lon;timestamp;P1;durP1;ratioP1;P2;durP2;ratioP2
11113;SDS011;5610;52.154;9.198;2024-01-15T00:02:41;12.57;;;9.90;;
11113;SDS011;5610;52.154;9.198;2024-01-15T00:05:26;10.60;;;8.77;;
11113;SDS011;5610;52.154;9.198;2024-01-15T00:08:11;12.05;;;9.90;;
11113;SDS011;5610;52.154;9.198;2024-01-15T00:10:56;15.65;;;11.18;;
11113;SDS011;5610;52.154;9.198;2024-01-15T00:13:42;10.50;;;9.25;;
11113;SDS011;5610;52.154;9.198;2024-01-15T00:16:28;12.18;;;10.10;;
11113;SDS011;5610;52.154;9.198;2024-01-15T00:19:13;12.88;;;10.15;;
11113;SDS011;5610;52.154;9.198;2024-01-15T00:21:58;11.73;;;10.32;;
11113;SDS011;5610;52.154;9.198;2024-01-15T00:24:44;9.73;;;8.48;;
11113;SDS011;5610;52.154;9.198;2024-01-15T00:27:29;12.15;;;9.57;;
11113;SDS011;5610;52.154;9.198;2024-01-15T00:30:14;12.95;;;10.23;;
11113;SDS011;5610;52.154;9.198;2024-01-15T00:33:01;11.82;;;9.00;;
11113;SDS011;5610;52.154;9.198;2024-01-15T00:35:46;11.82;;;8.57;;
11113;SDS011;5610;52.154;9.198;2024-01-15T00:38:31;11.48;;;8.07;;
11113;SDS011;5610;52.154;9.198;2024-01-15T00:41:17;12.57;;;8.25;;
11113;SDS011;5610;52.154;9.198;2024-01-15T00:44:03;14.20;;;8.75;;
11113;SDS011;5610;52.154;9.198;2024-01-15T00:46:48;12.95;;;7.70;;
11113;SDS011;5610;52.154;9.198;2024-01-15T00:49:35;13.13;;;8.85;;
11113;SDS011;5610;52.154;9.198;2024-01-15T00:52:20;13.00;;;8.00;;
11113;SDS011;5610;52.154;9.198;2024-01-15T00:55:05;10.15;;;7.35;;
11113;SDS011;5610;52.154;9.198;2024-01-15T00:57:51;12.13;;;8.20;;
11113;SDS011;5610;52.154;9.198;2024-01-15T01:00:36;15.63;;;7.20;;
11113;SDS011;5610;52.154;9.198;2024-01-15T01:03:21;16.15;;;8.45;;
11113;SDS011;5610;52.154;9.198;2024-01-15T01:06:08;11.15;;;7.93;;
11113;SDS011;5610;52.154;9.198;2024-01-15T01:08:53;9.07;;;7.10;;
11113;SDS011;5610;52.154;9.198;2024-01-15T01:11:38;9.10;;;6.40;;
11113;SDS011;5610;52.154;9.198;2024-01-15T01:14:24;10.57;;;7.65;;
11113;SDS011;5610;52.154;9.198;2024-01-15T01:17:09;9.43;;;6.57;;
11113;SDS011;5610;52.154;9.198;2024-01-15T01:19:54;11.25;;;7.40;;
11113;SDS011;5610;52.154;9.198;2024-01-15T01:22:41;8.25;;;6.03;;
11113;SDS011;5610;52.154;9.198;2024-01-15T01:25:26;8.60;;;6.20;;
11113;SDS011;5610;52.154;9.198;2024-01-15T01:28:12;11.85;;;7.00;;
11113;SDS011;5610;52.154;9.198;2024-01-15T01:30:57;9.48;;;6.20;;
11113;SDS011;5610;52.154;9.198;2024-01-15T01:33:42;8.98;;;6.55;;
11113;SDS011;5610;52.154;9.198;2024-01-15T01:36:28;9.48;;;7.03;;
11113;SDS011;5610;52.154;9.198;2024-01-15T01:39:14;11.15;;;6.55;;
11113;SDS011;5610;52.154;9.198;2024-01-15T01:42:00;8.55;;;5.68;;
11113;SDS011;5610;52.154;9.198;2024-01-15T01:44:45;11.95;;;5.53;;
11113;SDS011;5610;52.154;9.198;2024-01-15T01:47:30;14.80;;;6.25;;
11113;SDS011;5610;52.154;9.198;2024-01-15T01:50:16;13.27;;;5.82;;
11113;SDS011;5610;52.154;9.198;2024-01-15T01:53:02;9.95;;;6.72;;
11113;SDS011;5610;52.154;9.198;2024-01-15T01:55:50;10.45;;;6.00;;
11113;SDS011;5610;52.154;9.198;2024-01-15T01:58:35;10.40;;;5.20;;
11113;SDS011;5610;52.154;9.198;2024-01-15T02:01:21;9.30;;;5.50;;
11113;SDS011;5610;52.154;9.198;2024-01-15T02:04:06;9.90;;;5.47;;
11113;SDS011;5610;52.154;9.198;2024-01-15T02:06:52;16.75;;;4.85;;
11113;SDS011;5610;52.154;9.198;2024-01-15T02:09:37;13.98;;;4.40;;
11113;SDS011;5610;52.154;9.198;2024-01-15T02:12:24;10.75;;;5.70;;
11113;SDS011;5610;52.154;9.198;2024-01-15T02:15:09;8.45;;;4.63;;
11113;SDS011;5610;52.154;9.198;2024-01-15T02:18:01;9.70;;;4.93;;
11113;SDS011;5610;52.154;9.198;2024-01-15T02:20:47;15.88;;;4.50;;
11113;SDS011;5610;52.154;9.198;2024-01-15T02:23:34;9.93;;;4.60;;
11113;SDS011;5610;52.154;9.198;2024-01-15T02:26:19;10.95;;;5.38;;
11113;SDS011;5610;52.154;9.198;2024-01-15T02:29:04;8.70;;;4.53;;
11113;SDS011;5610;52.154;9.198;2024-01-15T02:31:52;7.00;;;4.30;;
11113;SDS011;5610;52.154;9.198;2024-01-15T02:34:37;13.65;;;5.72;;
11113;SDS011;5610;52.154;9.198;2024-01-15T02:37:23;11.52;;;4.63;;
11113;SDS011;5610;52.154;9.198;2024-01-15T02:40:10;10.65;;;4.65;;
11113;SDS011;5610;52.154;9.198;2024-01-15T02:42:55;7.72;;;3.85;;
11113;SDS011;5610;52.154;9.198;2024-01-15T02:45:41;9.30;;;4.00;;
11113;SDS011;5610;52.154;9.198;2024-01-15T02:48:26;12.40;;;4.00;;
11113;SDS011;5610;52.154;9.198;2024-01-15T02:51:11;12.95;;;4.45;;
11113;SDS011;5610;52.154;9.198;2024-01-15T02:53:57;7.57;;;3.70;;
11113;SDS011;5610;52.154;9.198;2024-01-15T02:56:43;11.40;;;3.70;;
11113;SDS011;5610;52.154;9.198;2024-01-15T02:59:28;9.80;;;3.42;;
11113;SDS011;5610;52.154;9.198;2024-01-15T03:02:13;8.10;;;3.33;;
11113;SDS011;5610;52.154;9.198;2024-01-15T03:04:58;7.88;;;2.97;;
11113;SDS011;5610;52.154;9.198;2024-01-15T03:07:44;8.50;;;3.50;;
11113;SDS011;5610;52.154;9.198;2024-01-15T03:10:29;7.70;;;3.20;;
11113;SDS011;5610;52.154;9.198;2024-01-15T03:13:15;11.40;;;3.53;;
11113;SDS011;5610;52.154;9.198;2024-01-15T03:16:04;6.47;;;3.38;;
11113;SDS011;5610;52.154;9.198;2024-01-15T03:18:49;13.38;;;3.60;;
11113;SDS011;5610;52.154;9.198;2024-01-15T03:21:34;9.35;;;3.88;;
11113;SDS011;5610;52.154;9.198;2024-01-15T03:24:19;10.73;;;3.20;;
11113;SDS011;5610;52.154;9.198;2024-01-15T03:27:04;9.88;;;4.13;;
11113;SDS011;5610;52.154;9.198;2024-01-15T03:29:51;7.35;;;3.50;;
11113;SDS011;5610;52.154;9.198;2024-01-15T03:32:36;10.30;;;3.50;;
11113;SDS011;5610;52.154;9.198;2024-01-15T03:35:21;7.70;;;3.30;;
11113;SDS011;5610;52.154;9.198;2024-01-15T03:38:06;10.30;;;3.03;;
11113;SDS011;5610;52.154;9.198;2024-01-15T03:40:51;6.97;;;3.95;;
11113;SDS011;5610;52.154;9.198;2024-01-15T03:43:36;12.32;;;4.10;;
11113;SDS011;5610;52.154;9.198;2024-01-15T03:46:23;10.32;;;3.60;;
11113;SDS011;5610;52.154;9.198;2024-01-15T03:49:08;7.57;;;3.80;;
11113;SDS011;5610;52.154;9.198;2024-01-15T03:51:53;9.25;;;4.28;;
11113;SDS011;5610;52.154;9.198;2024-01-15T03:54:38;10.57;;;3.90;;
11113;SDS011;5610;52.154;9.198;2024-01-15T03:57:23;4.95;;;3.33;;
11113;SDS011;5610;52.154;9.198;2024-01-15T04:00:09;14.35;;;4.10;;
11113;SDS011;5610;52.154;9.198;2024-01-15T04:02:56;11.05;;;4.13;;
11113;SDS011;5610;52.154;9.198;2024-01-15T04:05:42;10.60;;;3.72;;
11113;SDS011;5610;52.154;9.198;2024-01-15T04:08:27;9.82;;;4.13;;
11113;SDS011;5610;52.154;9.198;2024-01-15T04:11:12;18.20;;;4.55;;
11113;SDS011;5610;52.154;9.198;2024-01-15T04:13:57;6.30;;;3.45;;
11113;SDS011;5610;52.154;9.198;2024-01-15T04:16:42;9.38;;;4.63;;
11113;SDS011;5610;52.154;9.198;2024-01-15T04:19:29;12.88;;;4.40;;
11113;SDS011;5610;52.154;9.198;2024-01-15T04:22:14;11.88;;;4.55;;
11113;SDS011;5610;52.154;9.198;2024-01-15T04:24:59;10.20;;;4.05;;
11113;SDS011;5610;52.154;9.198;2024-01-15T04:27:44;10.23;;;4.50;;
11113;SDS011;5610;52.154;9.198;2024-01-15T04:30:29;7.68;;;4.63;;
11113;SDS011;5610;52.154;9.198;2024-01-15T04:33:15;12.70;;;4.60;;
11113;SDS011;5610;52.154;9.198;2024-01-15T04:36:02;11.15;;;4.30;;
11113;SDS011;5610;52.154;9.198;2024-01-15T04:38:48;7.90;;;4.20;;
11113;SDS011;5610;52.154;9.198;2024-01-15T04:41:33;11.57;;;4.85;;
11113;SDS011;5610;52.154;9.198;2024-01-15T04:44:19;9.13;;;4.75;;
11113;SDS011;5610;52.154;9.198;2024-01-15T04:47:04;6.72;;;4.50;;
11113;SDS011;5610;52.154;9.198;2024-01-15T04:49:50;10.98;;;5.05;;
11113;SDS011;5610;52.154;9.198;2024-01-15T04:52:36;6.53;;;4.75;;
11113;SDS011;5610;52.154;9.198;2024-01-15T04:55:22;12.13;;;5.40;;
11113;SDS011;5610;52.154;9.198;2024-01-15T04:58:07;10.25;;;4.88;;
11113;SDS011;5610;52.154;9.198;2024-01-15T05:00:52;12.93;;;4.95;;
11113;SDS011;5610;52.154;9.198;2024-01-15T05:03:38;10.75;;;4.40;;
11113;SDS011;5610;52.154;9.198;2024-01-15T05:06:23;10.38;;;3.92;;
11113;SDS011;5610;52.154;9.198;2024-01-15T05:09:09;10.80;;;4.63;;
11113;SDS011;5610;52.154;9.198;2024-01-15T05:11:54;9.10;;;4.70;;
11113;SDS011;5610;52.154;9.198;2024-01-15T05:14:39;7.28;;;4.50;;
11113;SDS011;5610;52.154;9.198;2024-01-15T05:17:24;14.75;;;5.05;;
11113;SDS011;5610;52.154;9.198;2024-01-15T05:20:10;9.07;;;4.45;;
11113;SDS011;5610;52.154;9.198;2024-01-15T05:22:55;14.10;;;6.03;;
11113;SDS011;5610;52.154;9.198;2024-01-15T05:25:42;11.52;;;4.80;;
11113;SDS011;5610;52.154;9.198;2024-01-15T05:28:27;10.25;;;4.90;;
11113;SDS011;5610;52.154;9.198;2024-01-15T05:31:13;8.10;;;3.92;;
11113;SDS011;5610;52.154;9.198;2024-01-15T05:33:58;7.93;;;4.35;;
11113;SDS011;5610;52.154;9.198;2024-01-15T05:36:43;12.27;;;4.60;;
11113;SDS011;5610;52.154;9.198;2024-01-15T05:39:31;10.52;;;4.72;;
11113;SDS011;5610;52.154;9.198;2024-01-15T05:42:18;7.80;;;4.72;;
11113;SDS011;5610;52.154;9.198;2024-01-15T05:45:04;13.38;;;4.10;;
11113;SDS011;5610;52.154;9.198;2024-01-15T05:47:49;8.57;;;3.97;;
11113;SDS011;5610;52.154;9.198;2024-01-15T05:50:34;13.93;;;4.55;;
11113;SDS011;5610;52.154;9.198;2024-01-15T05:53:20;8.35;;;4.72;;
11113;SDS011;5610;52.154;9.198;2024-01-15T05:56:05;20.52;;;13.52;;
11113;SDS011;5610;52.154;9.198;2024-01-15T05:58:52;35.20;;;16.60;;
11113;SDS011;5610;52.154;9.198;2024-01-15T06:01:38;17.38;;;11.98;;
11113;SDS011;5610;52.154;9.198;2024-01-15T06:04:23;24.15;;;16.90;;
11113;SDS011;5610;52.154;9.198;2024-01-15T06:07:08;8.68;;;5.10;;
11113;SDS011;5610;52.154;9.198;2024-01-15T06:09:53;9.88;;;3.90;;
11113;SDS011;5610;52.154;9.198;2024-01-15T06:12:40;5.20;;;4.22;;
11113;SDS011;5610;52.154;9.198;2024-01-15T06:15:29;14.98;;;6.18;;
11113;SDS011;5610;52.154;9.198;2024-01-15T06:18:14;16.52;;;6.15;;
11113;SDS011;5610;52.154;9.198;2024-01-15T06:20:59;12.85;;;5.63;;
11113;SDS011;5610;52.154;9.198;2024-01-15T06:23:44;14.57;;;5.25;;
11113;SDS011;5610;52.154;9.198;2024-01-15T06:26:29;9.15;;;3.67;;
11113;SDS011;5610;52.154;9.198;2024-01-15T06:29:14;17.10;;;7.20;;
11113;SDS011;5610;52.154;9.198;2024-01-15T06:32:01;13.15;;;5.50;;
11113;SDS011;5610;52.154;9.198;2024-01-15T06:34:46;7.60;;;4.20;;
11113;SDS011;5610;52.154;9.198;2024-01-15T06:37:31;7.70;;;4.20;;
11113;SDS011;5610;52.154;9.198;2024-01-15T06:40:16;7.57;;;4.57;;
11113;SDS011;5610;52.154;9.198;2024-01-15T06:43:01;11.02;;;4.20;;
11113;SDS011;5610;52.154;9.198;2024-01-15T06:45:47;4.28;;;3.40;;
11113;SDS011;5610;52.154;9.198;2024-01-15T06:48:33;5.90;;;3.33;;
11113;SDS011;5610;52.154;9.198;2024-01-15T06:51:18;10.18;;;4.50;;
11113;SDS011;5610;52.154;9.198;2024-01-15T06:54:03;10.48;;;3.67;;
11113;SDS011;5610;52.154;9.198;2024-01-15T06:56:49;7.60;;;4.13;;
11113;SDS011;5610;52.154;9.198;2024-01-15T06:59:34;7.60;;;4.32;;
11113;SDS011;5610;52.154;9.198;2024-01-15T07:02:20;8.13;;;3.63;;
11113;SDS011;5610;52.154;9.198;2024-01-15T07:05:07;11.70;;;3.92;;
11113;SDS011;5610;52.154;9.198;2024-01-15T07:07:52;9.70;;;3.42;;
11113;SDS011;5610;52.154;9.198;2024-01-15T07:10:37;6.78;;;3.00;;
11113;SDS011;5610;52.154;9.198;2024-01-15T07:13:22;7.15;;;3.60;;
11113;SDS011;5610;52.154;9.198;2024-01-15T07:16:08;6.13;;;3.17;;
11113;SDS011;5610;52.154;9.198;2024-01-15T07:18:53;6.32;;;3.20;;
11113;SDS011;5610;52.154;9.198;2024-01-15T07:21:41;5.32;;;2.80;;
11113;SDS011;5610;52.154;9.198;2024-01-15T07:24:26;9.18;;;3.10;;
11113;SDS011;5610;52.154;9.198;2024-01-15T07:27:12;4.38;;;3.50;;
11113;SDS011;5610;52.154;9.198;2024-01-15T07:29:57;6.80;;;3.30;;
11113;SDS011;5610;52.154;9.198;2024-01-15T07:32:43;5.60;;;3.55;;
11113;SDS011;5610;52.154;9.198;2024-01-15T07:35:28;6.22;;;3.13;;
11113;SDS011;5610;52.154;9.198;2024-01-15T07:38:14;6.47;;;3.63;;
11113;SDS011;5610;52.154;9.198;2024-01-15T07:41:00;4.85;;;3.72;;
11113;SDS011;5610;52.154;9.198;2024-01-15T07:43:45;5.72;;;3.72;;
11113;SDS011;5610;52.154;9.198;2024-01-15T07:46:30;9.93;;;5.50;;
11113;SDS011;5610;52.154;9.198;2024-01-15T07:49:16;6.72;;;3.35;;
11113;SDS011;5610;52.154;9.198;2024-01-15T07:52:01;4.72;;;3.60;;
11113;SDS011;5610;52.154;9.198;2024-01-15T07:54:48;8.75;;;3.63;;
11113;SDS011;5610;52.154;9.198;2024-01-15T07:57:33;7.38;;;3.72;;
11113;SDS011;5610;52.154;9.198;2024-01-15T08:00:19;9.68;;;4.00;;
11113;SDS011;5610;52.154;9.198;2024-01-15T08:03:04;6.88;;;3.42;;
11113;SDS011;5610;52.154;9.198;2024-01-15T08:05:50;6.68;;;3.88;;
11113;SDS011;5610;52.154;9.198;2024-01-15T08:08:37;4.80;;;3.35;;
11113;SDS011;5610;52.154;9.198;2024-01-15T08:11:23;4.53;;;3.50;;
11113;SDS011;5610;52.154;9.198;2024-01-15T08:14:09;7.65;;;3.30;;
11113;SDS011;5610;52.154;9.198;2024-01-15T08:16:55;5.50;;;3.17;;
11113;SDS011;5610;52.154;9.198;2024-01-15T08:19:40;5.90;;;3.70;;
11113;SDS011;5610;52.154;9.198;2024-01-15T08:22:25;6.65;;;3.60;;
11113;SDS011;5610;52.154;9.198;2024-01-15T08:25:10;4.50;;;3.28;;
11113;SDS011;5610;52.154;9.198;2024-01-15T08:27:58;6.30;;;3.30;;
11113;SDS011;5610;52.154;9.198;2024-01-15T08:30:43;11.15;;;3.60;;
11113;SDS011;5610;52.154;9.198;2024-01-15T08:33:29;5.97;;;3.67;;
11113;SDS011;5610;52.154;9.198;2024-01-15T08:36:14;7.88;;;3.80;;
11113;SDS011;5610;52.154;9.198;2024-01-15T08:38:59;7.35;;;3.95;;
11113;SDS011;5610;52.154;9.198;2024-01-15T08:41:44;4.47;;;3.47;;
11113;SDS011;5610;52.154;9.198;2024-01-15T08:44:32;5.78;;;2.92;;
11113;SDS011;5610;52.154;9.198;2024-01-15T08:47:18;5.50;;;3.90;;
11113;SDS011;5610;52.154;9.198;2024-01-15T08:50:03;6.40;;;3.22;;
11113;SDS011;5610;52.154;9.198;2024-01-15T08:52:50;10.15;;;4.03;;
11113;SDS011;5610;52.154;9.198;2024-01-15T08:55:35;6.60;;;3.00;;
11113;SDS011;5610;52.154;9.198;2024-01-15T08:58:20;9.93;;;3.13;;
11113;SDS011;5610;52.154;9.198;2024-01-15T09:01:07;5.20;;;3.25;;
11113;SDS011;5610;52.154;9.198;2024-01-15T09:03:53;9.13;;;4.15;;
11113;SDS011;5610;52.154;9.198;2024-01-15T09:06:39;7.85;;;2.45;;
11113;SDS011;5610;52.154;9.198;2024-01-15T09:09:24;7.10;;;3.27;;
11113;SDS011;5610;52.154;9.198;2024-01-15T09:12:09;5.55;;;3.05;;
11113;SDS011;5610;52.154;9.198;2024-01-15T09:14:54;8.90;;;3.65;;
11113;SDS011;5610;52.154;9.198;2024-01-15T09:17:41;4.20;;;2.60;;
11113;SDS011;5610;52.154;9.198;2024-01-15T09:20:27;5.50;;;2.88;;
11113;SDS011;5610;52.154;9.198;2024-01-15T09:23:12;5.07;;;2.43;;
11113;SDS011;5610;52.154;9.198;2024-01-15T09:25:57;3.95;;;2.97;;
11113;SDS011;5610;52.154;9.198;2024-01-15T09:28:43;8.30;;;3.10;;
11113;SDS011;5610;52.154;9.198;2024-01-15T09:31:28;3.60;;;2.90;;
11113;SDS011;5610;52.154;9.198;2024-01-15T09:34:15;4.72;;;2.35;;
11113;SDS011;5610;52.154;9.198;2024-01-15T09:37:00;6.13;;;2.10;;
11113;SDS011;5610;52.154;9.198;2024-01-15T09:39:47;4.40;;;2.45;;
11113;SDS011;5610;52.154;9.198;2024-01-15T09:42:33;3.87;;;2.57;;
11113;SDS011;5610;52.154;9.198;2024-01-15T09:45:20;6.28;;;2.22;;
11113;SDS011;5610;52.154;9.198;2024-01-15T09:48:06;3.03;;;2.55;;
11113;SDS011;5610;52.154;9.198;2024-01-15T09:50:53;3.33;;;2.95;;
11113;SDS011;5610;52.154;9.198;2024-01-15T09:53:38;4.40;;;2.50;;
11113;SDS011;5610;52.154;9.198;2024-01-15T09:56:25;3.33;;;2.55;;
11113;SDS011;5610;52.154;9.198;2024-01-15T09:59:11;3.20;;;2.65;;
11113;SDS011;5610;52.154;9.198;2024-01-15T10:01:57;2.22;;;2.05;;
11113;SDS011;5610;52.154;9.198;2024-01-15T10:04:44;2.37;;;2.17;;
11113;SDS011;5610;52.154;9.198;2024-01-15T10:07:31;2.20;;;2.00;;
11113;SDS011;5610;52.154;9.198;2024-01-15T10:10:20;2.20;;;2.00;;
11113;SDS011;5610;52.154;9.198;2024-01-15T10:13:07;3.07;;;2.33;;
11113;SDS011;5610;52.154;9.198;2024-01-15T10:15:52;2.30;;;2.17;;
11113;SDS011;5610;52.154;9.198;2024-01-15T10:18:38;4.87;;;2.50;;
11113;SDS011;5610;52.154;9.198;2024-01-15T10:21:24;4.25;;;2.35;;
11113;SDS011;5610;52.154;9.198;2024-01-15T10:24:12;3.08;;;2.80;;
11113;SDS011;5610;52.154;9.198;2024-01-15T10:27:04;4.40;;;2.60;;
11113;SDS011;5610;52.154;9.198;2024-01-15T10:29:50;3.93;;;2.60;;
11113;SDS011;5610;52.154;9.198;2024-01-15T10:32:36;3.63;;;2.60;;
11113;SDS011;5610;52.154;9.198;2024-01-15T10:35:21;2.93;;;2.50;;
11113;SDS011;5610;52.154;9.198;2024-01-15T10:38:06;3.23;;;2.53;;
11113;SDS011;5610;52.154;9.198;2024-01-15T10:40:53;4.70;;;3.05;;
11113;SDS011;5610;52.154;9.198;2024-01-15T10:43:39;5.63;;;3.10;;
11113;SDS011;5610;52.154;9.198;2024-01-15T10:46:25;5.90;;;2.83;;
11113;SDS011;5610;52.154;9.198;2024-01-15T10:49:11;4.90;;;2.83;;
11113;SDS011;5610;52.154;9.198;2024-01-15T10:51:56;9.52;;;3.20;;
11113;SDS011;5610;52.154;9.198;2024-01-15T10:54:42;6.10;;;3.90;;
11113;SDS011;5610;52.154;9.198;2024-01-15T10:57:29;6.07;;;2.93;;
11113;SDS011;5610;52.154;9.198;2024-01-15T11:00:15;7.30;;;3.20;;
11113;SDS011;5610;52.154;9.198;2024-01-15T11:03:01;14.43;;;3.23;;
11113;SDS011;5610;52.154;9.198;2024-01-15T11:05:49;5.70;;;2.77;;
11113;SDS011;5610;52.154;9.198;2024-01-15T11:08:34;6.40;;;3.28;;
11113;SDS011;5610;52.154;9.198;2024-01-15T11:11:20;8.70;;;3.53;;
11113;SDS011;5610;52.154;9.198;2024-01-15T11:14:08;5.47;;;3.00;;
11113;SDS011;5610;52.154;9.198;2024-01-15T11:16:53;9.70;;;3.50;;
11113;SDS011;5610;52.154;9.198;2024-01-15T11:19:44;12.05;;;3.88;;
11113;SDS011;5610;52.154;9.198;2024-01-15T11:22:47;12.57;;;3.40;;
11113;SDS011;5610;52.154;9.198;2024-01-15T11:25:34;6.85;;;2.60;;
11113;SDS011;5610;52.154;9.198;2024-01-15T11:34:50;4.82;;;2.20;;
11113;SDS011;5610;52.154;9.198;2024-01-15T11:37:56;9.10;;;2.80;;
11113;SDS011;5610;52.154;9.198;2024-01-15T11:40:42;5.47;;;2.33;;
11113;SDS011;5610;52.154;9.198;2024-01-15T11:43:31;6.87;;;3.47;;
11113;SDS011;5610;52.154;9.198;2024-01-15T11:46:17;4.18;;;2.50;;
11113;SDS011;5610;52.154;9.198;2024-01-15T11:49:04;4.87;;;2.23;;
11113;SDS011;5610;52.154;9.198;2024-01-15T11:51:51;7.40;;;2.65;;
11113;SDS011;5610;52.154;9.198;2024-01-15T11:54:39;4.70;;;3.07;;
11113;SDS011;5610;52.154;9.198;2024-01-15T11:57:33;5.60;;;2.83;;
11113;SDS011;5610;52.154;9.198;2024-01-15T12:00:25;6.60;;;2.53;;
11113;SDS011;5610;52.154;9.198;2024-01-15T12:03:11;5.80;;;2.40;;
11113;SDS011;5610;52.154;9.198;2024-01-15T12:05:58;7.70;;;2.67;;
11113;SDS011;5610;52.154;9.198;2024-01-15T12:08:43;3.80;;;2.70;;
11113;SDS011;5610;52.154;9.198;2024-01-15T12:11:29;4.00;;;2.87;;
11113;SDS011;5610;52.154;9.198;2024-01-15T12:14:16;6.73;;;3.13;;
11113;SDS011;5610;52.154;9.198;2024-01-15T12:17:01;10.23;;;3.73;;
11113;SDS011;5610;52.154;9.198;2024-01-15T12:19:47;5.80;;;2.40;;
11113;SDS011;5610;52.154;9.198;2024-01-15T12:22:33;7.63;;;2.30;;
11113;SDS011;5610;52.154;9.198;2024-01-15T12:25:19;7.27;;;2.37;;
11113;SDS011;5610;52.154;9.198;2024-01-15T12:28:04;4.73;;;2.17;;
11113;SDS011;5610;52.154;9.198;2024-01-15T12:30:51;10.60;;;3.00;;
11113;SDS011;5610;52.154;9.198;2024-01-15T12:33:36;4.77;;;1.97;;
11113;SDS011;5610;52.154;9.198;2024-01-15T12:36:22;5.13;;;2.27;;
11113;SDS011;5610;52.154;9.198;2024-01-15T12:39:12;3.43;;;2.03;;
11113;SDS011;5610;52.154;9.198;2024-01-15T12:41:58;3.95;;;2.17;;
11113;SDS011;5610;52.154;9.198;2024-01-15T12:44:44;5.63;;;2.10;;
11113;SDS011;5610;52.154;9.198;2024-01-15T12:47:30;7.15;;;1.85;;
11113;SDS011;5610;52.154;9.198;2024-01-15T12:50:15;4.03;;;2.27;;
11113;SDS011;5610;52.154;9.198;2024-01-15T12:53:01;4.25;;;2.03;;
11113;SDS011;5610;52.154;9.198;2024-01-15T12:55:47;5.57;;;2.20;;
11113;SDS011;5610;52.154;9.198;2024-01-15T12:58:33;10.23;;;2.30;;
11113;SDS011;5610;52.154;9.198;2024-01-15T13:01:18;4.00;;;2.67;;
11113;SDS011;5610;52.154;9.198;2024-01-15T13:04:03;3.47;;;2.37;;
11113;SDS011;5610;52.154;9.198;2024-01-15T13:06:52;4.77;;;2.00;;
11113;SDS011;5610;52.154;9.198;2024-01-15T13:09:37;7.00;;;2.27;;
11113;SDS011;5610;52.154;9.198;2024-01-15T13:12:24;5.87;;;3.10;;
11113;SDS011;5610;52.154;9.198;2024-01-15T13:15:09;6.87;;;3.13;;
11113;SDS011;5610;52.154;9.198;2024-01-15T13:17:55;5.53;;;2.58;;
11113;SDS011;5610;52.154;9.198;2024-01-15T13:20:41;6.33;;;2.70;;
11113;SDS011;5610;52.154;9.198;2024-01-15T13:23:26;5.07;;;2.57;;
11113;SDS011;5610;52.154;9.198;2024-01-15T13:26:12;6.47;;;3.03;;
11113;SDS011;5610;52.154;9.198;2024-01-15T13:28:59;6.07;;;2.25;;
11113;SDS011;5610;52.154;9.198;2024-01-15T13:31:44;7.23;;;2.40;;
11113;SDS011;5610;52.154;9.198;2024-01-15T13:34:30;4.90;;;2.40;;
11113;SDS011;5610;52.154;9.198;2024-01-15T13:37:15;4.55;;;2.35;;
11113;SDS011;5610;52.154;9.198;2024-01-15T13:40:01;5.37;;;3.00;;
11113;SDS011;5610;52.154;9.198;2024-01-15T13:42:47;5.10;;;2.33;;
11113;SDS011;5610;52.154;9.198;2024-01-15T13:45:34;3.15;;;2.38;;
11113;SDS011;5610;52.154;9.198;2024-01-15T13:48:21;3.65;;;3.13;;
11113;SDS011;5610;52.154;9.198;2024-01-15T13:51:06;3.00;;;2.67;;
11113;SDS011;5610;52.154;9.198;2024-01-15T13:53:51;9.48;;;3.80;;
11113;SDS011;5610;52.154;9.198;2024-01-15T13:56:36;6.13;;;2.83;;
11113;SDS011;5610;52.154;9.198;2024-01-15T13:59:21;3.22;;;2.30;;
11113;SDS011;5610;52.154;9.198;2024-01-15T14:02:08;3.20;;;2.90;;
11113;SDS011;5610;52.154;9.198;2024-01-15T14:04:53;4.88;;;2.67;;
11113;SDS011;5610;52.154;9.198;2024-01-15T14:07:38;6.32;;;2.30;;
11113;SDS011;5610;52.154;9.198;2024-01-15T14:10:24;7.30;;;5.60;;
11113;SDS011;5610;52.154;9.198;2024-01-15T14:13:09;4.97;;;3.67;;
11113;SDS011;5610;52.154;9.198;2024-01-15T14:15:54;6.20;;;3.10;;
11113;SDS011;5610;52.154;9.198;2024-01-15T14:18:41;7.20;;;4.35;;
11113;SDS011;5610;52.154;9.198;2024-01-15T14:21:26;4.55;;;2.67;;
11113;SDS011;5610;52.154;9.198;2024-01-15T14:24:11;3.58;;;1.70;;
11113;SDS011;5610;52.154;9.198;2024-01-15T14:26:57;2.10;;;1.90;;
11113;SDS011;5610;52.154;9.198;2024-01-15T14:29:42;3.80;;;1.90;;
11113;SDS011;5610;52.154;9.198;2024-01-15T14:32:27;5.65;;;3.35;;
11113;SDS011;5610;52.154;9.198;2024-01-15T14:35:14;7.70;;;4.68;;
11113;SDS011;5610;52.154;9.198;2024-01-15T14:37:59;7.40;;;4.40;;
11113;SDS011;5610;52.154;9.198;2024-01-15T14:40:44;2.45;;;2.25;;
11113;SDS011;5610;52.154;9.198;2024-01-15T14:43:29;4.40;;;3.00;;
11113;SDS011;5610;52.154;9.198;2024-01-15T14:46:16;2.60;;;2.17;;
11113;SDS011;5610;52.154;9.198;2024-01-15T14:49:01;2.75;;;2.25;;
11113;SDS011;5610;52.154;9.198;2024-01-15T14:51:48;2.85;;;2.22;;
11113;SDS011;5610;52.154;9.198;2024-01-15T14:54:34;3.33;;;2.15;;
11113;SDS011;5610;52.154;9.198;2024-01-15T14:57:19;2.70;;;2.50;;
11113;SDS011;5610;52.154;9.198;2024-01-15T15:00:05;2.65;;;2.35;;
11113;SDS011;5610;52.154;9.198;2024-01-15T15:02:53;3.45;;;2.42;;
11113;SDS011;5610;52.154;9.198;2024-01-15T15:05:38;5.18;;;2.92;;
11113;SDS011;5610;52.154;9.198;2024-01-15T15:08:24;2.90;;;2.60;;
11113;SDS011;5610;52.154;9.198;2024-01-15T15:11:11;6.88;;;3.42;;
11113;SDS011;5610;52.154;9.198;2024-01-15T15:13:57;7.93;;;7.07;;
11113;SDS011;5610;52.154;9.198;2024-01-15T15:16:44;4.45;;;2.42;;
11113;SDS011;5610;52.154;9.198;2024-01-15T15:19:30;4.88;;;2.85;;
11113;SDS011;5610;52.154;9.198;2024-01-15T15:22:15;3.20;;;2.53;;
11113;SDS011;5610;52.154;9.198;2024-01-15T15:25:04;2.70;;;1.98;;
11113;SDS011;5610;52.154;9.198;2024-01-15T15:27:52;2.63;;;1.90;;
11113;SDS011;5610;52.154;9.198;2024-01-15T15:30:37;5.95;;;2.80;;
11113;SDS011;5610;52.154;9.198;2024-01-15T15:33:23;3.55;;;2.75;;
11113;SDS011;5610;52.154;9.198;2024-01-15T15:36:08;3.47;;;1.90;;
11113;SDS011;5610;52.154;9.198;2024-01-15T15:38:54;2.05;;;1.83;;
11113;SDS011;5610;52.154;9.198;2024-01-15T15:41:41;2.92;;;2.20;;
11113;SDS011;5610;52.154;9.198;2024-01-15T15:44:27;3.72;;;2.92;;
11113;SDS011;5610;52.154;9.198;2024-01-15T15:47:13;3.83;;;2.15;;
11113;SDS011;5610;52.154;9.198;2024-01-15T15:49:59;5.70;;;2.30;;
11113;SDS011;5610;52.154;9.198;2024-01-15T15:52:44;2.78;;;2.47;;
11113;SDS011;5610;52.154;9.198;2024-01-15T15:55:29;2.55;;;2.03;;
11113;SDS011;5610;52.154;9.198;2024-01-15T15:58:16;2.50;;;2.30;;
11113;SDS011;5610;52.154;9.198;2024-01-15T16:01:02;2.53;;;1.70;;
11113;SDS011;5610;52.154;9.198;2024-01-15T16:03:47;2.90;;;1.75;;
11113;SDS011;5610;52.154;9.198;2024-01-15T16:06:32;1.60;;;1.50;;
11113;SDS011;5610;52.154;9.198;2024-01-15T16:09:18;3.97;;;2.05;;
11113;SDS011;5610;52.154;9.198;2024-01-15T16:12:03;2.47;;;1.85;;
11113;SDS011;5610;52.154;9.198;2024-01-15T16:14:50;1.55;;;1.45;;
11113;SDS011;5610;52.154;9.198;2024-01-15T16:17:35;2.38;;;1.50;;
11113;SDS011;5610;52.154;9.198;2024-01-15T16:20:21;3.55;;;1.70;;
11113;SDS011;5610;52.154;9.198;2024-01-15T16:23:06;7.15;;;1.77;;
11113;SDS011;5610;52.154;9.198;2024-01-15T16:25:51;5.20;;;1.92;;
11113;SDS011;5610;52.154;9.198;2024-01-15T16:28:36;5.38;;;2.03;;
11113;SDS011;5610;52.154;9.198;2024-01-15T16:31:23;3.25;;;1.90;;
11113;SDS011;5610;52.154;9.198;2024-01-15T16:34:08;4.88;;;2.15;;
11113;SDS011;5610;52.154;9.198;2024-01-15T16:36:53;5.20;;;2.17;;
11113;SDS011;5610;52.154;9.198;2024-01-15T16:39:39;3.13;;;1.90;;
11113;SDS011;5610;52.154;9.198;2024-01-15T16:42:24;4.32;;;2.20;;
11113;SDS011;5610;52.154;9.198;2024-01-15T16:45:10;4.82;;;2.30;;
11113;SDS011;5610;52.154;9.198;2024-01-15T16:47:56;3.05;;;2.25;;
11113;SDS011;5610;52.154;9.198;2024-01-15T16:50:42;4.10;;;2.10;;
11113;SDS011;5610;52.154;9.198;2024-01-15T16:53:27;5.75;;;2.28;;
11113;SDS011;5610;52.154;9.198;2024-01-15T16:56:12;2.67;;;2.20;;
11113;SDS011;5610;52.154;9.198;2024-01-15T16:58:58;3.92;;;2.28;;